sensor_id;sensor_type;location;lat;lon;timestamp;P1;durP1;ratioP1;P2;durP2;ratioP2
47513;SDS011;33951;51.988;5.910;2023-10-31T07:02:46;12.18;;;8.05;;
47513;SDS011;33951;51.988;5.910;2023-10-31T07:33:00;40.47;;;19.05;;
47513;SDS011;33951;51.988;5.910;2023-10-31T07:35:44;37.45;;;19.67;;
47513;SDS011;33951;51.988;5.910;2023-10-31T07:45:02;44.13;;;24.67;;
47513;SDS011;33951;51.988;5.910;2023-10-31T07:47:37;35.00;;;21.02;;
47513;SDS011;33951;51.988;5.910;2023-10-31T07:50:06;45.53;;;25.95;;
47513;SDS011;33951;51.988;5.910;2023-10-31T07:52:38;44.25;;;24.73;;
47513;SDS011;33951;51.988;5.910;2023-10-31T07:58:36;39.20;;;25.00;;
47513;SDS011;33951;51.988;5.910;2023-10-31T08:01:57;47.10;;;26.90;;
47513;SDS011;33951;51.988;5.910;2023-10-31T08:04:42;41.67;;;26.67;;
47513;SDS011;33951;51.988;5.910;2023-10-31T08:41:25;31.70;;;19.92;;
47513;SDS011;33951;51.988;5.910;2023-10-31T08:44:58;24.60;;;17.10;;
47513;SDS011;33951;51.988;5.910;2023-10-31T08:48:24;24.92;;;17.35;;
47513;SDS011;33951;51.988;5.910;2023-10-31T08:51:09;32.28;;;16.50;;
47513;SDS011;33951;51.988;5.910;2023-10-31T08:57:14;27.50;;;14.85;;
47513;SDS011;33951;51.988;5.910;2023-10-31T09:02:46;23.98;;;13.57;;
47513;SDS011;33951;51.988;5.910;2023-10-31T09:07:47;22.23;;;12.45;;
47513;SDS011;33951;51.988;5.910;2023-10-31T09:10:35;18.60;;;12.75;;
47513;SDS011;33951;51.988;5.910;2023-10-31T09:13:15;21.50;;;12.32;;
47513;SDS011;33951;51.988;5.910;2023-10-31T09:15:58;18.52;;;12.63;;
47513;SDS011;33951;51.988;5.910;2023-10-31T09:18:31;22.02;;;12.40;;
47513;SDS011;33951;51.988;5.910;2023-10-31T09:20:57;21.90;;;11.13;;
47513;SDS011;33951;51.988;5.910;2023-10-31T09:23:42;18.42;;;11.80;;
47513;SDS011;33951;51.988;5.910;2023-10-31T09:26:10;21.17;;;12.30;;
47513;SDS011;33951;51.988;5.910;2023-10-31T09:28:59;19.75;;;11.80;;
47513;SDS011;33951;51.988;5.910;2023-10-31T09:31:55;21.50;;;10.70;;
47513;SDS011;33951;51.988;5.910;2023-10-31T09:34:38;21.48;;;11.18;;
47513;SDS011;33951;51.988;5.910;2023-10-31T09:37:15;18.05;;;9.50;;
47513;SDS011;33951;51.988;5.910;2023-10-31T09:40:19;20.13;;;10.63;;
47513;SDS011;33951;51.988;5.910;2023-10-31T09:52:50;19.25;;;11.85;;
47513;SDS011;33951;51.988;5.910;2023-10-31T09:55:38;20.67;;;12.43;;
47513;SDS011;33951;51.988;5.910;2023-10-31T09:58:06;23.40;;;12.40;;
47513;SDS011;33951;51.988;5.910;2023-10-31T10:00:32;17.10;;;12.18;;
47513;SDS011;33951;51.988;5.910;2023-10-31T10:02:57;14.05;;;11.13;;
47513;SDS011;33951;51.988;5.910;2023-10-31T10:05:26;18.55;;;12.77;;
47513;SDS011;33951;51.988;5.910;2023-10-31T10:07:56;15.90;;;13.38;;
47513;SDS011;33951;51.988;5.910;2023-10-31T10:10:23;20.08;;;12.05;;
47513;SDS011;33951;51.988;5.910;2023-10-31T10:12:51;24.55;;;12.70;;
47513;SDS011;33951;51.988;5.910;2023-10-31T10:15:17;14.90;;;12.23;;
47513;SDS011;33951;51.988;5.910;2023-10-31T10:17:49;20.98;;;14.15;;
47513;SDS011;33951;51.988;5.910;2023-10-31T10:20:15;19.02;;;12.10;;
47513;SDS011;33951;51.988;5.910;2023-10-31T10:22:42;16.30;;;12.82;;
47513;SDS011;33951;51.988;5.910;2023-10-31T10:25:12;15.73;;;13.85;;
47513;SDS011;33951;51.988;5.910;2023-10-31T10:27:42;20.73;;;14.13;;
47513;SDS011;33951;51.988;5.910;2023-10-31T10:30:10;27.27;;;15.13;;
47513;SDS011;33951;51.988;5.910;2023-10-31T10:32:37;25.17;;;16.85;;
47513;SDS011;33951;51.988;5.910;2023-10-31T10:35:03;31.02;;;21.02;;
47513;SDS011;33951;51.988;5.910;2023-10-31T10:37:32;18.63;;;13.23;;
47513;SDS011;33951;51.988;5.910;2023-10-31T10:40:02;18.05;;;10.68;;
47513;SDS011;33951;51.988;5.910;2023-10-31T10:42:44;18.92;;;10.55;;
47513;SDS011;33951;51.988;5.910;2023-10-31T10:45:16;16.45;;;10.55;;
47513;SDS011;33951;51.988;5.910;2023-10-31T10:47:47;13.27;;;8.40;;
47513;SDS011;33951;51.988;5.910;2023-10-31T10:50:14;14.85;;;10.32;;
47513;SDS011;33951;51.988;5.910;2023-10-31T10:52:49;15.38;;;9.70;;
47513;SDS011;33951;51.988;5.910;2023-10-31T10:55:25;15.85;;;8.43;;
47513;SDS011;33951;51.988;5.910;2023-10-31T10:57:56;18.38;;;9.40;;
47513;SDS011;33951;51.988;5.910;2023-10-31T11:00:35;17.95;;;10.30;;
47513;SDS011;33951;51.988;5.910;2023-10-31T11:03:02;23.40;;;10.35;;
47513;SDS011;33951;51.988;5.910;2023-10-31T11:05:29;11.30;;;8.88;;
47513;SDS011;33951;51.988;5.910;2023-10-31T11:07:56;12.93;;;8.18;;
47513;SDS011;33951;51.988;5.910;2023-10-31T11:10:23;15.50;;;9.65;;
47513;SDS011;33951;51.988;5.910;2023-10-31T11:12:50;14.05;;;10.23;;
47513;SDS011;33951;51.988;5.910;2023-10-31T11:15:16;22.95;;;10.95;;
47513;SDS011;33951;51.988;5.910;2023-10-31T11:17:43;22.33;;;10.23;;
47513;SDS011;33951;51.988;5.910;2023-10-31T11:20:11;19.73;;;11.45;;
47513;SDS011;33951;51.988;5.910;2023-10-31T11:22:39;19.08;;;10.52;;
47513;SDS011;33951;51.988;5.910;2023-10-31T11:25:09;24.10;;;11.98;;
47513;SDS011;33951;51.988;5.910;2023-10-31T11:27:37;13.40;;;11.73;;
47513;SDS011;33951;51.988;5.910;2023-10-31T11:30:06;18.60;;;13.50;;
47513;SDS011;33951;51.988;5.910;2023-10-31T11:32:53;25.17;;;18.73;;
47513;SDS011;33951;51.988;5.910;2023-10-31T11:35:21;25.92;;;19.23;;
47513;SDS011;33951;51.988;5.910;2023-10-31T11:37:48;28.05;;;21.88;;
47513;SDS011;33951;51.988;5.910;2023-10-31T11:40:21;27.83;;;22.47;;
47513;SDS011;33951;51.988;5.910;2023-10-31T11:42:51;39.50;;;23.35;;
47513;SDS011;33951;51.988;5.910;2023-10-31T11:45:35;27.00;;;21.08;;
47513;SDS011;33951;51.988;5.910;2023-10-31T11:48:06;32.75;;;23.10;;
47513;SDS011;33951;51.988;5.910;2023-10-31T11:50:33;26.30;;;22.33;;
47513;SDS011;33951;51.988;5.910;2023-10-31T11:53:06;29.05;;;19.90;;
47513;SDS011;33951;51.988;5.910;2023-10-31T11:55:33;31.45;;;21.98;;
47513;SDS011;33951;51.988;5.910;2023-10-31T11:58:13;27.35;;;22.15;;
47513;SDS011;33951;51.988;5.910;2023-10-31T12:00:42;28.77;;;21.65;;
47513;SDS011;33951;51.988;5.910;2023-10-31T12:03:12;25.75;;;21.65;;
47513;SDS011;33951;51.988;5.910;2023-10-31T12:05:38;33.45;;;23.08;;
47513;SDS011;33951;51.988;5.910;2023-10-31T12:08:03;27.67;;;22.38;;
47513;SDS011;33951;51.988;5.910;2023-10-31T12:10:29;27.63;;;20.77;;
47513;SDS011;33951;51.988;5.910;2023-10-31T12:12:56;26.27;;;19.15;;
47513;SDS011;33951;51.988;5.910;2023-10-31T12:15:26;28.58;;;20.15;;
47513;SDS011;33951;51.988;5.910;2023-10-31T12:17:51;27.52;;;19.08;;
47513;SDS011;33951;51.988;5.910;2023-10-31T12:20:17;25.08;;;19.05;;
47513;SDS011;33951;51.988;5.910;2023-10-31T12:22:43;28.05;;;19.52;;
47513;SDS011;33951;51.988;5.910;2023-10-31T12:25:09;35.70;;;21.20;;
47513;SDS011;33951;51.988;5.910;2023-10-31T12:30:11;28.67;;;20.30;;
47513;SDS011;33951;51.988;5.910;2023-10-31T12:32:39;32.15;;;19.02;;
47513;SDS011;33951;51.988;5.910;2023-10-31T12:35:09;31.52;;;18.73;;
47513;SDS011;33951;51.988;5.910;2023-10-31T12:37:40;29.17;;;20.08;;
47513;SDS011;33951;51.988;5.910;2023-10-31T12:40:19;28.17;;;20.20;;
47513;SDS011;33951;51.988;5.910;2023-10-31T12:45:13;29.35;;;19.38;;
47513;SDS011;33951;51.988;5.910;2023-10-31T12:47:39;32.25;;;20.40;;
47513;SDS011;33951;51.988;5.910;2023-10-31T12:50:14;35.78;;;20.63;;
47513;SDS011;33951;51.988;5.910;2023-10-31T12:52:48;37.25;;;22.75;;
47513;SDS011;33951;51.988;5.910;2023-10-31T12:55:16;36.95;;;22.05;;
47513;SDS011;33951;51.988;5.910;2023-10-31T12:57:43;37.58;;;21.45;;
47513;SDS011;33951;51.988;5.910;2023-10-31T13:00:10;35.00;;;20.73;;
47513;SDS011;33951;51.988;5.910;2023-10-31T13:02:40;36.17;;;22.80;;
47513;SDS011;33951;51.988;5.910;2023-10-31T13:05:25;34.00;;;21.33;;
47513;SDS011;33951;51.988;5.910;2023-10-31T13:07:52;34.45;;;22.60;;
47513;SDS011;33951;51.988;5.910;2023-10-31T13:10:20;40.70;;;23.27;;
47513;SDS011;33951;51.988;5.910;2023-10-31T13:12:47;38.60;;;21.80;;
47513;SDS011;33951;51.988;5.910;2023-10-31T13:15:13;42.35;;;24.48;;
47513;SDS011;33951;51.988;5.910;2023-10-31T13:17:46;41.42;;;24.13;;
47513;SDS011;33951;51.988;5.910;2023-10-31T13:20:15;34.58;;;22.63;;
47513;SDS011;33951;51.988;5.910;2023-10-31T13:22:42;38.78;;;23.65;;
47513;SDS011;33951;51.988;5.910;2023-10-31T13:25:09;37.92;;;24.45;;
47513;SDS011;33951;51.988;5.910;2023-10-31T13:27:39;36.67;;;22.73;;
47513;SDS011;33951;51.988;5.910;2023-10-31T13:30:11;33.58;;;22.05;;
47513;SDS011;33951;51.988;5.910;2023-10-31T13:32:39;39.85;;;25.65;;
47513;SDS011;33951;51.988;5.910;2023-10-31T13:35:06;40.50;;;25.92;;
47513;SDS011;33951;51.988;5.910;2023-10-31T13:37:34;40.42;;;24.00;;
47513;SDS011;33951;51.988;5.910;2023-10-31T13:40:00;31.55;;;20.92;;
47513;SDS011;33951;51.988;5.910;2023-10-31T13:42:26;35.78;;;19.45;;
47513;SDS011;33951;51.988;5.910;2023-10-31T13:44:52;28.38;;;18.13;;
47513;SDS011;33951;51.988;5.910;2023-10-31T13:47:18;28.08;;;16.73;;
47513;SDS011;33951;51.988;5.910;2023-10-31T13:49:43;28.75;;;19.00;;
47513;SDS011;33951;51.988;5.910;2023-10-31T13:52:11;31.10;;;19.02;;
47513;SDS011;33951;51.988;5.910;2023-10-31T13:54:37;30.10;;;19.00;;
47513;SDS011;33951;51.988;5.910;2023-10-31T13:57:03;31.38;;;19.08;;
47513;SDS011;33951;51.988;5.910;2023-10-31T13:59:28;30.38;;;20.38;;
47513;SDS011;33951;51.988;5.910;2023-10-31T14:01:54;34.58;;;21.80;;
47513;SDS011;33951;51.988;5.910;2023-10-31T14:04:20;42.83;;;23.63;;
47513;SDS011;33951;51.988;5.910;2023-10-31T14:06:45;29.67;;;20.35;;
47513;SDS011;33951;51.988;5.910;2023-10-31T14:09:12;30.58;;;19.60;;
47513;SDS011;33951;51.988;5.910;2023-10-31T14:11:40;25.30;;;18.58;;
47513;SDS011;33951;51.988;5.910;2023-10-31T14:14:09;28.90;;;18.48;;
47513;SDS011;33951;51.988;5.910;2023-10-31T14:16:44;28.55;;;19.52;;
47513;SDS011;33951;51.988;5.910;2023-10-31T14:19:11;26.13;;;18.23;;
47513;SDS011;33951;51.988;5.910;2023-10-31T14:21:38;24.65;;;18.75;;
47513;SDS011;33951;51.988;5.910;2023-10-31T14:24:04;27.95;;;18.38;;
47513;SDS011;33951;51.988;5.910;2023-10-31T14:26:30;24.52;;;17.02;;
47513;SDS011;33951;51.988;5.910;2023-10-31T14:28:58;26.77;;;18.90;;
47513;SDS011;33951;51.988;5.910;2023-10-31T14:31:24;22.77;;;17.83;;
47513;SDS011;33951;51.988;5.910;2023-10-31T14:33:49;25.23;;;18.23;;
47513;SDS011;33951;51.988;5.910;2023-10-31T14:36:15;26.02;;;18.08;;
47513;SDS011;33951;51.988;5.910;2023-10-31T14:38:41;29.42;;;20.17;;
47513;SDS011;33951;51.988;5.910;2023-10-31T14:41:07;26.17;;;18.83;;
47513;SDS011;33951;51.988;5.910;2023-10-31T14:43:33;28.80;;;19.77;;
47513;SDS011;33951;51.988;5.910;2023-10-31T14:45:59;22.73;;;17.77;;
47513;SDS011;33951;51.988;5.910;2023-10-31T14:48:26;26.90;;;19.77;;
47513;SDS011;33951;51.988;5.910;2023-10-31T14:50:51;23.63;;;18.40;;
47513;SDS011;33951;51.988;5.910;2023-10-31T14:53:17;28.92;;;18.48;;
47513;SDS011;33951;51.988;5.910;2023-10-31T14:55:46;25.30;;;19.63;;
47513;SDS011;33951;51.988;5.910;2023-10-31T14:58:12;20.23;;;15.15;;
47513;SDS011;33951;51.988;5.910;2023-10-31T15:00:37;22.75;;;14.25;;
47513;SDS011;33951;51.988;5.910;2023-10-31T15:03:03;22.42;;;14.45;;
47513;SDS011;33951;51.988;5.910;2023-10-31T15:05:29;17.92;;;14.15;;
47513;SDS011;33951;51.988;5.910;2023-10-31T15:07:56;15.93;;;11.63;;
47513;SDS011;33951;51.988;5.910;2023-10-31T15:10:25;17.10;;;11.75;;
47513;SDS011;33951;51.988;5.910;2023-10-31T15:12:53;15.38;;;10.00;;
47513;SDS011;33951;51.988;5.910;2023-10-31T15:15:19;12.90;;;9.68;;
47513;SDS011;33951;51.988;5.910;2023-10-31T15:17:45;11.68;;;8.15;;
47513;SDS011;33951;51.988;5.910;2023-10-31T15:20:12;14.13;;;8.75;;
47513;SDS011;33951;51.988;5.910;2023-10-31T15:22:38;12.20;;;8.63;;
47513;SDS011;33951;51.988;5.910;2023-10-31T15:25:05;10.25;;;9.07;;
47513;SDS011;33951;51.988;5.910;2023-10-31T15:27:31;16.67;;;8.43;;
47513;SDS011;33951;51.988;5.910;2023-10-31T15:29:57;12.50;;;8.52;;
47513;SDS011;33951;51.988;5.910;2023-10-31T15:32:22;11.73;;;8.70;;
47513;SDS011;33951;51.988;5.910;2023-10-31T15:34:48;13.15;;;9.27;;
47513;SDS011;33951;51.988;5.910;2023-10-31T15:37:16;10.55;;;7.43;;
47513;SDS011;33951;51.988;5.910;2023-10-31T15:39:42;13.60;;;9.23;;
47513;SDS011;33951;51.988;5.910;2023-10-31T15:42:08;13.05;;;9.40;;
47513;SDS011;33951;51.988;5.910;2023-10-31T15:44:35;17.02;;;9.65;;
47513;SDS011;33951;51.988;5.910;2023-10-31T15:47:02;12.90;;;9.52;;
47513;SDS011;33951;51.988;5.910;2023-10-31T15:49:28;14.45;;;9.93;;
47513;SDS011;33951;51.988;5.910;2023-10-31T15:51:54;17.08;;;9.57;;
47513;SDS011;33951;51.988;5.910;2023-10-31T15:54:19;17.02;;;11.27;;
47513;SDS011;33951;51.988;5.910;2023-10-31T15:56:45;18.15;;;10.45;;
47513;SDS011;33951;51.988;5.910;2023-10-31T15:59:11;16.55;;;10.68;;
47513;SDS011;33951;51.988;5.910;2023-10-31T16:01:36;12.52;;;10.45;;
47513;SDS011;33951;51.988;5.910;2023-10-31T16:04:02;14.45;;;11.00;;
47513;SDS011;33951;51.988;5.910;2023-10-31T17:07:48;17.15;;;11.93;;
47513;SDS011;33951;51.988;5.910;2023-10-31T17:10:14;18.42;;;12.38;;
47513;SDS011;33951;51.988;5.910;2023-10-31T17:12:40;19.13;;;13.13;;
47513;SDS011;33951;51.988;5.910;2023-10-31T17:15:05;15.63;;;11.90;;
47513;SDS011;33951;51.988;5.910;2023-10-31T17:17:32;22.20;;;12.93;;
47513;SDS011;33951;51.988;5.910;2023-10-31T17:19:58;19.67;;;13.13;;
47513;SDS011;33951;51.988;5.910;2023-10-31T18:58:12;20.88;;;14.82;;
47513;SDS011;33951;51.988;5.910;2023-10-31T19:00:37;21.33;;;14.15;;
47513;SDS011;33951;51.988;5.910;2023-10-31T19:03:10;20.05;;;13.75;;
47513;SDS011;33951;51.988;5.910;2023-10-31T19:05:36;17.77;;;12.75;;
47513;SDS011;33951;51.988;5.910;2023-10-31T19:08:04;20.02;;;14.38;;
47513;SDS011;33951;51.988;5.910;2023-10-31T19:10:30;22.00;;;14.73;;
47513;SDS011;33951;51.988;5.910;2023-10-31T20:04:43;21.17;;;16.33;;
47513;SDS011;33951;51.988;5.910;2023-10-31T20:07:11;25.20;;;17.02;;
47513;SDS011;33951;51.988;5.910;2023-10-31T20:09:36;22.25;;;15.93;;
47513;SDS011;33951;51.988;5.910;2023-10-31T20:12:02;23.80;;;17.13;;
47513;SDS011;33951;51.988;5.910;2023-10-31T20:14:29;18.77;;;15.32;;
47513;SDS011;33951;51.988;5.910;2023-10-31T20:16:54;26.70;;;17.10;;
47513;SDS011;33951;51.988;5.910;2023-10-31T20:19:20;23.77;;;17.85;;
47513;SDS011;33951;51.988;5.910;2023-10-31T20:21:45;26.75;;;17.67;;
47513;SDS011;33951;51.988;5.910;2023-10-31T20:24:12;29.85;;;19.27;;
47513;SDS011;33951;51.988;5.910;2023-10-31T20:26:38;28.10;;;19.65;;
47513;SDS011;33951;51.988;5.910;2023-10-31T20:29:06;23.58;;;17.90;;
47513;SDS011;33951;51.988;5.910;2023-10-31T20:31:32;29.15;;;21.38;;
47513;SDS011;33951;51.988;5.910;2023-10-31T20:33:58;24.95;;;19.75;;
47513;SDS011;33951;51.988;5.910;2023-10-31T20:36:24;22.45;;;18.60;;
47513;SDS011;33951;51.988;5.910;2023-10-31T20:38:49;27.80;;;21.55;;
47513;SDS011;33951;51.988;5.910;2023-10-31T20:41:15;30.83;;;21.27;;
47513;SDS011;33951;51.988;5.910;2023-10-31T20:43:41;28.20;;;21.10;;
47513;SDS011;33951;51.988;5.910;2023-10-31T20:46:06;28.52;;;22.40;;
47513;SDS011;33951;51.988;5.910;2023-10-31T20:48:35;34.53;;;22.75;;
47513;SDS011;33951;51.988;5.910;2023-10-31T20:51:01;31.30;;;20.20;;
47513;SDS011;33951;51.988;5.910;2023-10-31T20:53:26;28.33;;;19.88;;
47513;SDS011;33951;51.988;5.910;2023-10-31T20:55:52;30.17;;;22.45;;
47513;SDS011;33951;51.988;5.910;2023-10-31T20:58:17;26.50;;;20.05;;
47513;SDS011;33951;51.988;5.910;2023-10-31T21:00:44;25.88;;;20.42;;
47513;SDS011;33951;51.988;5.910;2023-10-31T21:03:09;32.08;;;21.10;;
47513;SDS011;33951;51.988;5.910;2023-10-31T21:05:36;27.15;;;18.55;;
47513;SDS011;33951;51.988;5.910;2023-10-31T21:08:02;25.88;;;18.77;;
47513;SDS011;33951;51.988;5.910;2023-10-31T21:10:29;26.33;;;18.60;;
47513;SDS011;33951;51.988;5.910;2023-10-31T21:12:56;28.00;;;18.95;;
47513;SDS011;33951;51.988;5.910;2023-10-31T21:15:24;26.67;;;19.75;;
47513;SDS011;33951;51.988;5.910;2023-10-31T21:17:50;28.05;;;17.80;;
47513;SDS011;33951;51.988;5.910;2023-10-31T21:20:16;31.27;;;19.05;;
47513;SDS011;33951;51.988;5.910;2023-10-31T21:22:42;27.17;;;17.23;;
47513;SDS011;33951;51.988;5.910;2023-10-31T21:25:10;36.22;;;20.00;;
47513;SDS011;33951;51.988;5.910;2023-10-31T21:27:36;30.40;;;19.73;;
47513;SDS011;33951;51.988;5.910;2023-10-31T21:30:04;32.83;;;19.95;;
47513;SDS011;33951;51.988;5.910;2023-10-31T21:32:30;30.33;;;19.13;;
47513;SDS011;33951;51.988;5.910;2023-10-31T21:34:56;35.45;;;20.25;;
47513;SDS011;33951;51.988;5.910;2023-10-31T21:37:24;26.30;;;18.17;;
47513;SDS011;33951;51.988;5.910;2023-10-31T21:39:50;26.98;;;17.67;;
47513;SDS011;33951;51.988;5.910;2023-10-31T21:42:15;29.20;;;17.80;;
47513;SDS011;33951;51.988;5.910;2023-10-31T21:44:41;26.52;;;16.77;;
47513;SDS011;33951;51.988;5.910;2023-10-31T21:47:07;31.77;;;19.05;;
47513;SDS011;33951;51.988;5.910;2023-10-31T21:49:32;24.80;;;17.50;;
47513;SDS011;33951;51.988;5.910;2023-10-31T21:51:58;24.45;;;17.95;;
47513;SDS011;33951;51.988;5.910;2023-10-31T21:54:23;32.28;;;18.08;;
47513;SDS011;33951;51.988;5.910;2023-10-31T21:56:50;25.85;;;17.27;;
47513;SDS011;33951;51.988;5.910;2023-10-31T21:59:16;29.55;;;19.50;;
47513;SDS011;33951;51.988;5.910;2023-10-31T22:01:44;32.88;;;18.90;;
47513;SDS011;33951;51.988;5.910;2023-10-31T22:04:12;30.98;;;17.08;;
47513;SDS011;33951;51.988;5.910;2023-10-31T22:06:40;31.23;;;17.52;;
47513;SDS011;33951;51.988;5.910;2023-10-31T22:09:05;28.98;;;17.63;;
47513;SDS011;33951;51.988;5.910;2023-10-31T22:11:31;31.08;;;17.05;;
47513;SDS011;33951;51.988;5.910;2023-10-31T22:13:59;31.38;;;16.80;;
47513;SDS011;33951;51.988;5.910;2023-10-31T22:16:25;22.90;;;15.02;;
47513;SDS011;33951;51.988;5.910;2023-10-31T22:18:57;26.77;;;14.23;;
47513;SDS011;33951;51.988;5.910;2023-10-31T22:21:23;27.05;;;15.88;;
47513;SDS011;33951;51.988;5.910;2023-10-31T22:23:48;28.05;;;16.52;;
47513;SDS011;33951;51.988;5.910;2023-10-31T22:26:14;25.83;;;15.70;;
47513;SDS011;33951;51.988;5.910;2023-10-31T22:28:39;36.28;;;16.48;;
47513;SDS011;33951;51.988;5.910;2023-10-31T22:31:05;28.17;;;15.23;;
47513;SDS011;33951;51.988;5.910;2023-10-31T22:33:34;26.90;;;15.68;;
47513;SDS011;33951;51.988;5.910;2023-10-31T22:36:00;28.02;;;14.77;;
47513;SDS011;33951;51.988;5.910;2023-10-31T22:38:26;27.50;;;14.52;;
47513;SDS011;33951;51.988;5.910;2023-10-31T22:41:01;27.50;;;13.95;;
47513;SDS011;33951;51.988;5.910;2023-10-31T22:43:27;22.83;;;13.95;;
47513;SDS011;33951;51.988;5.910;2023-10-31T22:45:53;26.30;;;14.80;;
47513;SDS011;33951;51.988;5.910;2023-10-31T22:48:26;20.42;;;13.75;;
47513;SDS011;33951;51.988;5.910;2023-10-31T22:50:52;31.30;;;15.20;;
47513;SDS011;33951;51.988;5.910;2023-10-31T22:53:17;32.35;;;15.63;;
47513;SDS011;33951;51.988;5.910;2023-10-31T22:55:45;23.80;;;13.70;;
47513;SDS011;33951;51.988;5.910;2023-10-31T22:58:11;25.35;;;15.60;;
47513;SDS011;33951;51.988;5.910;2023-10-31T23:00:41;25.42;;;14.38;;
47513;SDS011;33951;51.988;5.910;2023-10-31T23:03:12;30.05;;;14.90;;
47513;SDS011;33951;51.988;5.910;2023-10-31T23:05:40;23.42;;;13.73;;
47513;SDS011;33951;51.988;5.910;2023-10-31T23:08:08;19.98;;;13.07;;
47513;SDS011;33951;51.988;5.910;2023-10-31T23:10:36;23.38;;;14.23;;
47513;SDS011;33951;51.988;5.910;2023-10-31T23:13:06;28.38;;;14.75;;
47513;SDS011;33951;51.988;5.910;2023-10-31T23:15:51;27.88;;;13.32;;
47513;SDS011;33951;51.988;5.910;2023-10-31T23:18:19;21.77;;;12.45;;
47513;SDS011;33951;51.988;5.910;2023-10-31T23:20:45;26.65;;;12.85;;
47513;SDS011;33951;51.988;5.910;2023-10-31T23:23:15;24.45;;;12.02;;
47513;SDS011;33951;51.988;5.910;2023-10-31T23:25:49;25.38;;;12.45;;
47513;SDS011;33951;51.988;5.910;2023-10-31T23:28:21;24.02;;;13.02;;
47513;SDS011;33951;51.988;5.910;2023-10-31T23:30:54;28.13;;;12.27;;
47513;SDS011;33951;51.988;5.910;2023-10-31T23:33:22;24.67;;;12.32;;
47513;SDS011;33951;51.988;5.910;2023-10-31T23:35:50;32.90;;;12.80;;
47513;SDS011;33951;51.988;5.910;2023-10-31T23:38:16;23.70;;;12.15;;
47513;SDS011;33951;51.988;5.910;2023-10-31T23:40:42;28.13;;;12.82;;
47513;SDS011;33951;51.988;5.910;2023-10-31T23:43:12;28.33;;;11.10;;
47513;SDS011;33951;51.988;5.910;2023-10-31T23:45:45;23.95;;;11.55;;
47513;SDS011;33951;51.988;5.910;2023-10-31T23:48:11;23.45;;;11.20;;
47513;SDS011;33951;51.988;5.910;2023-10-31T23:50:36;27.42;;;12.15;;
47513;SDS011;33951;51.988;5.910;2023-10-31T23:53:05;21.73;;;9.40;;
47513;SDS011;33951;51.988;5.910;2023-10-31T23:55:38;32.33;;;11.43;;
47513;SDS011;33951;51.988;5.910;2023-10-31T23:58:03;23.92;;;9.98;;
